Trairao, Brazil
Current Conditions -  °F | °C
As of 3:00 PM on Monday 24 Nov 2014 (Local Time) from SBIH Reporting Station
Scattered Clouds Scattered Clouds  
Wind Chill: 91°   Ceiling: Unl
Heat Index: 105°   Visibility: 6mi
Dew Point: 77°   Wind: 6mph
Humidity: 63%   Direction: 120°ESE
Pressure: 29.8"   Gusts: NA
Location:  4.57°S, 55.94°W
Report Text: SBIH 241800Z 12005KT 9999 SCT020 33/25 Q1009
Loading
Personal Weather Stations






























Interactive Weather Map New forecast layout! Learn more

10-Day Weather Forecast

Advertisements
Track Severe Weather on mobile